sensor_id;sensor_type;location;lat;lon;timestamp;temperature;humidity
65470;DHT22;52067;50.710;14.492;2023-12-20T00:01:00;5.58;89.49
65470;DHT22;52067;50.710;14.492;2023-12-20T00:03:26;5.54;89.60
65470;DHT22;52067;50.710;14.492;2023-12-20T00:05:51;5.40;89.80
65470;DHT22;52067;50.710;14.492;2023-12-20T00:08:17;5.42;90.20
65470;DHT22;52067;50.710;14.492;2023-12-20T00:10:43;5.45;90.37
65470;DHT22;52067;50.710;14.492;2023-12-20T00:13:08;5.52;90.24
65470;DHT22;52067;50.710;14.492;2023-12-20T00:15:34;5.54;90.14
65470;DHT22;52067;50.710;14.492;2023-12-20T00:17:59;5.48;89.92
65470;DHT22;52067;50.710;14.492;2023-12-20T00:20:26;5.45;89.97
65470;DHT22;52067;50.710;14.492;2023-12-20T00:22:51;5.51;90.02
65470;DHT22;52067;50.710;14.492;2023-12-20T00:25:17;5.52;89.68
65470;DHT22;52067;50.710;14.492;2023-12-20T00:27:43;5.45;89.53
65470;DHT22;52067;50.710;14.492;2023-12-20T00:30:09;5.42;89.65
65470;DHT22;52067;50.710;14.492;2023-12-20T00:32:35;5.38;89.65
65470;DHT22;52067;50.710;14.492;2023-12-20T00:35:01;5.31;89.83
65470;DHT22;52067;50.710;14.492;2023-12-20T00:37:26;5.20;90.14
65470;DHT22;52067;50.710;14.492;2023-12-20T00:39:52;5.19;90.22
65470;DHT22;52067;50.710;14.492;2023-12-20T00:42:17;5.23;90.28
65470;DHT22;52067;50.710;14.492;2023-12-20T00:44:43;5.23;90.24
65470;DHT22;52067;50.710;14.492;2023-12-20T00:47:08;5.27;90.24
65470;DHT22;52067;50.710;14.492;2023-12-20T00:49:33;4.92;91.09
65470;DHT22;52067;50.710;14.492;2023-12-20T00:51:59;5.20;91.05
65470;DHT22;52067;50.710;14.492;2023-12-20T00:54:24;5.30;90.53
65470;DHT22;52067;50.710;14.492;2023-12-20T00:56:50;5.37;90.22
65470;DHT22;52067;50.710;14.492;2023-12-20T00:59:16;5.40;89.89
65470;DHT22;52067;50.710;14.492;2023-12-20T01:01:43;5.42;89.69
65470;DHT22;52067;50.710;14.492;2023-12-20T01:04:08;5.47;89.56
65470;DHT22;52067;50.710;14.492;2023-12-20T01:06:33;5.50;89.53
65470;DHT22;52067;50.710;14.492;2023-12-20T01:08:59;5.48;89.54
65470;DHT22;52067;50.710;14.492;2023-12-20T01:11:24;5.47;89.55
65470;DHT22;52067;50.710;14.492;2023-12-20T01:13:50;5.50;89.51
65470;DHT22;52067;50.710;14.492;2023-12-20T01:16:15;5.42;89.64
65470;DHT22;52067;50.710;14.492;2023-12-20T01:18:40;5.28;89.70
65470;DHT22;52067;50.710;14.492;2023-12-20T01:21:06;5.28;89.90
65470;DHT22;52067;50.710;14.492;2023-12-20T01:23:32;5.27;89.31
65470;DHT22;52067;50.710;14.492;2023-12-20T01:25:57;5.28;89.15
65470;DHT22;52067;50.710;14.492;2023-12-20T01:28:25;5.30;89.21
65470;DHT22;52067;50.710;14.492;2023-12-20T01:30:50;5.24;89.30
65470;DHT22;52067;50.710;14.492;2023-12-20T01:33:15;5.26;89.59
65470;DHT22;52067;50.710;14.492;2023-12-20T01:35:41;4.99;90.16
65470;DHT22;52067;50.710;14.492;2023-12-20T01:38:06;5.14;90.22
65470;DHT22;52067;50.710;14.492;2023-12-20T01:40:32;5.20;90.02
65470;DHT22;52067;50.710;14.492;2023-12-20T01:42:59;4.86;90.63
65470;DHT22;52067;50.710;14.492;2023-12-20T01:45:24;4.90;90.69
65470;DHT22;52067;50.710;14.492;2023-12-20T01:47:50;5.03;90.61
65470;DHT22;52067;50.710;14.492;2023-12-20T01:50:16;5.07;90.61
65470;DHT22;52067;50.710;14.492;2023-12-20T01:52:42;5.19;90.38
65470;DHT22;52067;50.710;14.492;2023-12-20T01:55:08;5.17;90.23
65470;DHT22;52067;50.710;14.492;2023-12-20T01:57:40;4.62;91.14
65470;DHT22;52067;50.710;14.492;2023-12-20T02:00:06;4.84;91.56
65470;DHT22;52067;50.710;14.492;2023-12-20T02:02:32;4.69;91.03
65470;DHT22;52067;50.710;14.492;2023-12-20T02:04:58;4.52;91.44
65470;DHT22;52067;50.710;14.492;2023-12-20T02:07:24;4.68;91.40
65470;DHT22;52067;50.710;14.492;2023-12-20T02:09:50;4.86;91.16
65470;DHT22;52067;50.710;14.492;2023-12-20T02:12:15;4.93;90.98
65470;DHT22;52067;50.710;14.492;2023-12-20T02:14:41;5.00;90.73
65470;DHT22;52067;50.710;14.492;2023-12-20T02:17:06;4.99;90.44
65470;DHT22;52067;50.710;14.492;2023-12-20T02:19:31;5.01;90.41
65470;DHT22;52067;50.710;14.492;2023-12-20T02:22:10;4.94;90.40
65470;DHT22;52067;50.710;14.492;2023-12-20T02:24:35;5.00;90.38
65470;DHT22;52067;50.710;14.492;2023-12-20T02:27:01;4.68;90.71
65470;DHT22;52067;50.710;14.492;2023-12-20T02:29:27;4.82;90.99
65470;DHT22;52067;50.710;14.492;2023-12-20T02:31:52;4.73;91.01
65470;DHT22;52067;50.710;14.492;2023-12-20T02:34:18;4.87;90.85
65470;DHT22;52067;50.710;14.492;2023-12-20T02:36:44;4.66;90.74
65470;DHT22;52067;50.710;14.492;2023-12-20T02:39:10;4.62;91.20
65470;DHT22;52067;50.710;14.492;2023-12-20T02:41:35;4.82;91.10
65470;DHT22;52067;50.710;14.492;2023-12-20T02:44:01;4.69;90.84
65470;DHT22;52067;50.710;14.492;2023-12-20T02:46:27;4.53;91.52
65470;DHT22;52067;50.710;14.492;2023-12-20T02:48:52;4.46;91.57
65470;DHT22;52067;50.710;14.492;2023-12-20T02:51:18;4.58;91.58
65470;DHT22;52067;50.710;14.492;2023-12-20T02:53:43;4.49;91.46
65470;DHT22;52067;50.710;14.492;2023-12-20T02:56:09;4.49;91.48
65470;DHT22;52067;50.710;14.492;2023-12-20T02:58:34;4.38;91.52
65470;DHT22;52067;50.710;14.492;2023-12-20T03:00:59;4.44;91.89
65470;DHT22;52067;50.710;14.492;2023-12-20T03:03:25;4.32;91.81
65470;DHT22;52067;50.710;14.492;2023-12-20T03:05:51;4.32;91.80
65470;DHT22;52067;50.710;14.492;2023-12-20T03:08:16;4.40;91.90
65470;DHT22;52067;50.710;14.492;2023-12-20T03:10:42;4.44;91.80
65470;DHT22;52067;50.710;14.492;2023-12-20T03:13:07;4.62;91.70
65470;DHT22;52067;50.710;14.492;2023-12-20T03:15:33;4.59;91.40
65470;DHT22;52067;50.710;14.492;2023-12-20T03:17:58;4.58;91.29
65470;DHT22;52067;50.710;14.492;2023-12-20T03:20:24;4.44;91.27
65470;DHT22;52067;50.710;14.492;2023-12-20T03:22:51;4.15;91.99
65470;DHT22;52067;50.710;14.492;2023-12-20T03:25:16;4.38;92.10
65470;DHT22;52067;50.710;14.492;2023-12-20T03:27:42;4.48;91.86
65470;DHT22;52067;50.710;14.492;2023-12-20T03:30:08;4.56;91.57
65470;DHT22;52067;50.710;14.492;2023-12-20T03:32:33;4.63;91.45
65470;DHT22;52067;50.710;14.492;2023-12-20T03:34:58;4.58;91.19
65470;DHT22;52067;50.710;14.492;2023-12-20T03:37:24;4.71;91.08
65470;DHT22;52067;50.710;14.492;2023-12-20T03:39:49;4.73;91.01
65470;DHT22;52067;50.710;14.492;2023-12-20T03:42:15;4.79;90.89
65470;DHT22;52067;50.710;14.492;2023-12-20T03:44:40;4.79;90.81
65470;DHT22;52067;50.710;14.492;2023-12-20T03:47:06;4.65;90.61
65470;DHT22;52067;50.710;14.492;2023-12-20T03:49:32;4.53;90.76
65470;DHT22;52067;50.710;14.492;2023-12-20T03:51:57;4.55;91.13
65470;DHT22;52067;50.710;14.492;2023-12-20T03:54:22;4.38;91.40
65470;DHT22;52067;50.710;14.492;2023-12-20T03:56:48;4.45;91.45
65470;DHT22;52067;50.710;14.492;2023-12-20T03:59:13;4.46;91.46
65470;DHT22;52067;50.710;14.492;2023-12-20T04:01:43;4.40;91.34
65470;DHT22;52067;50.710;14.492;2023-12-20T04:04:10;4.41;91.37
65470;DHT22;52067;50.710;14.492;2023-12-20T04:06:35;4.49;91.29
65470;DHT22;52067;50.710;14.492;2023-12-20T04:09:01;4.52;91.17
65470;DHT22;52067;50.710;14.492;2023-12-20T04:11:26;4.21;91.65
65470;DHT22;52067;50.710;14.492;2023-12-20T04:13:51;3.98;92.00
65470;DHT22;52067;50.710;14.492;2023-12-20T04:16:17;3.98;92.33
65470;DHT22;52067;50.710;14.492;2023-12-20T04:18:42;4.11;92.26
65470;DHT22;52067;50.710;14.492;2023-12-20T04:21:07;4.37;92.11
65470;DHT22;52067;50.710;14.492;2023-12-20T04:23:33;4.30;91.69
65470;DHT22;52067;50.710;14.492;2023-12-20T04:25:58;4.18;91.53
65470;DHT22;52067;50.710;14.492;2023-12-20T04:28:24;4.32;91.78
65470;DHT22;52067;50.710;14.492;2023-12-20T04:30:49;4.42;91.60
65470;DHT22;52067;50.710;14.492;2023-12-20T04:33:14;4.40;91.53
65470;DHT22;52067;50.710;14.492;2023-12-20T04:35:40;4.24;91.56
65470;DHT22;52067;50.710;14.492;2023-12-20T04:38:06;4.32;91.69
65470;DHT22;52067;50.710;14.492;2023-12-20T04:40:31;4.30;91.65
65470;DHT22;52067;50.710;14.492;2023-12-20T04:42:57;4.28;91.82
65470;DHT22;52067;50.710;14.492;2023-12-20T04:45:22;4.30;91.79
65470;DHT22;52067;50.710;14.492;2023-12-20T04:47:50;4.24;91.78
65470;DHT22;52067;50.710;14.492;2023-12-20T04:50:15;4.30;91.79
65470;DHT22;52067;50.710;14.492;2023-12-20T04:52:41;4.25;91.82
65470;DHT22;52067;50.710;14.492;2023-12-20T04:55:07;4.20;91.92
65470;DHT22;52067;50.710;14.492;2023-12-20T04:57:34;4.21;91.93
65470;DHT22;52067;50.710;14.492;2023-12-20T04:59:59;4.28;91.92
65470;DHT22;52067;50.710;14.492;2023-12-20T05:02:25;4.27;91.82
65470;DHT22;52067;50.710;14.492;2023-12-20T05:04:50;4.34;91.74
65470;DHT22;52067;50.710;14.492;2023-12-20T05:07:15;4.38;91.67
65470;DHT22;52067;50.710;14.492;2023-12-20T05:09:41;4.35;91.62
65470;DHT22;52067;50.710;14.492;2023-12-20T05:12:07;4.27;91.47
65470;DHT22;52067;50.710;14.492;2023-12-20T05:14:32;4.27;91.51
65470;DHT22;52067;50.710;14.492;2023-12-20T05:16:57;4.32;91.64
65470;DHT22;52067;50.710;14.492;2023-12-20T05:19:24;4.25;91.52
65470;DHT22;52067;50.710;14.492;2023-12-20T05:21:49;4.32;91.52
65470;DHT22;52067;50.710;14.492;2023-12-20T05:24:15;4.45;91.41
65470;DHT22;52067;50.710;14.492;2023-12-20T05:26:40;4.53;91.22
65470;DHT22;52067;50.710;14.492;2023-12-20T05:29:06;4.46;91.03
65470;DHT22;52067;50.710;14.492;2023-12-20T05:31:31;4.68;90.95
65470;DHT22;52067;50.710;14.492;2023-12-20T05:33:57;4.75;90.72
65470;DHT22;52067;50.710;14.492;2023-12-20T05:36:22;4.73;90.33
65470;DHT22;52067;50.710;14.492;2023-12-20T05:38:48;4.83;90.03
65470;DHT22;52067;50.710;14.492;2023-12-20T05:41:13;4.59;89.92
65470;DHT22;52067;50.710;14.492;2023-12-20T05:43:39;4.73;90.29
65470;DHT22;52067;50.710;14.492;2023-12-20T05:46:05;4.76;90.11
65470;DHT22;52067;50.710;14.492;2023-12-20T05:48:30;4.87;89.87
65470;DHT22;52067;50.710;14.492;2023-12-20T05:50:56;4.86;89.63
65470;DHT22;52067;50.710;14.492;2023-12-20T05:53:21;4.89;89.58
65470;DHT22;52067;50.710;14.492;2023-12-20T05:55:46;4.63;89.85
65470;DHT22;52067;50.710;14.492;2023-12-20T05:58:12;4.72;90.03
65470;DHT22;52067;50.710;14.492;2023-12-20T06:00:38;4.80;89.87
65470;DHT22;52067;50.710;14.492;2023-12-20T06:03:03;4.35;90.45
65470;DHT22;52067;50.710;14.492;2023-12-20T06:05:30;4.45;91.15
65470;DHT22;52067;50.710;14.492;2023-12-20T06:07:56;4.53;90.91
65470;DHT22;52067;50.710;14.492;2023-12-20T06:10:26;4.59;90.51
65470;DHT22;52067;50.710;14.492;2023-12-20T06:12:52;4.45;90.76
65470;DHT22;52067;50.710;14.492;2023-12-20T06:15:17;4.53;90.78
65470;DHT22;52067;50.710;14.492;2023-12-20T06:17:43;4.66;90.64
65470;DHT22;52067;50.710;14.492;2023-12-20T06:20:09;4.66;90.49
65470;DHT22;52067;50.710;14.492;2023-12-20T06:22:35;4.59;90.52
65470;DHT22;52067;50.710;14.492;2023-12-20T06:25:02;4.68;90.35
65470;DHT22;52067;50.710;14.492;2023-12-20T06:27:28;4.37;90.52
65470;DHT22;52067;50.710;14.492;2023-12-20T06:29:53;4.10;91.49
65470;DHT22;52067;50.710;14.492;2023-12-20T06:32:19;3.89;92.01
65470;DHT22;52067;50.710;14.492;2023-12-20T06:34:44;4.05;92.03
65470;DHT22;52067;50.710;14.492;2023-12-20T06:37:10;3.94;92.07
65470;DHT22;52067;50.710;14.492;2023-12-20T06:39:35;3.97;92.10
65470;DHT22;52067;50.710;14.492;2023-12-20T06:42:00;4.04;92.15
65470;DHT22;52067;50.710;14.492;2023-12-20T06:44:26;3.97;92.14
65470;DHT22;52067;50.710;14.492;2023-12-20T06:46:51;4.00;92.24
65470;DHT22;52067;50.710;14.492;2023-12-20T06:49:17;4.05;92.14
65470;DHT22;52067;50.710;14.492;2023-12-20T06:51:43;4.17;91.94
65470;DHT22;52067;50.710;14.492;2023-12-20T06:54:09;4.22;91.57
65470;DHT22;52067;50.710;14.492;2023-12-20T06:56:34;4.32;91.41
65470;DHT22;52067;50.710;14.492;2023-12-20T06:58:59;4.38;91.24
65470;DHT22;52067;50.710;14.492;2023-12-20T07:01:25;4.27;91.17
65470;DHT22;52067;50.710;14.492;2023-12-20T07:03:50;4.40;91.32
65470;DHT22;52067;50.710;14.492;2023-12-20T07:06:16;4.42;91.14
65470;DHT22;52067;50.710;14.492;2023-12-20T07:08:42;4.35;90.86
65470;DHT22;52067;50.710;14.492;2023-12-20T07:11:08;4.34;90.93
65470;DHT22;52067;50.710;14.492;2023-12-20T07:13:33;4.25;91.01
65470;DHT22;52067;50.710;14.492;2023-12-20T07:15:59;4.28;91.19
65470;DHT22;52067;50.710;14.492;2023-12-20T07:18:24;4.27;91.06
65470;DHT22;52067;50.710;14.492;2023-12-20T07:20:50;4.28;90.99
65470;DHT22;52067;50.710;14.492;2023-12-20T07:23:15;4.32;90.90
65470;DHT22;52067;50.710;14.492;2023-12-20T07:25:41;4.40;90.76
65470;DHT22;52067;50.710;14.492;2023-12-20T07:28:06;4.45;90.28
65470;DHT22;52067;50.710;14.492;2023-12-20T07:30:31;4.44;89.66
65470;DHT22;52067;50.710;14.492;2023-12-20T07:32:57;4.55;89.25
65470;DHT22;52067;50.710;14.492;2023-12-20T07:35:25;4.62;89.18
65470;DHT22;52067;50.710;14.492;2023-12-20T07:37:50;4.66;88.42
65470;DHT22;52067;50.710;14.492;2023-12-20T07:40:16;4.75;88.03
65470;DHT22;52067;50.710;14.492;2023-12-20T07:42:44;4.79;88.13
65470;DHT22;52067;50.710;14.492;2023-12-20T07:45:10;4.66;88.25
65470;DHT22;52067;50.710;14.492;2023-12-20T07:47:36;4.71;88.39
65470;DHT22;52067;50.710;14.492;2023-12-20T07:50:01;4.62;88.75
65470;DHT22;52067;50.710;14.492;2023-12-20T07:52:28;4.62;88.75
65470;DHT22;52067;50.710;14.492;2023-12-20T07:54:54;4.69;88.87
65470;DHT22;52067;50.710;14.492;2023-12-20T07:57:19;4.68;89.23
65470;DHT22;52067;50.710;14.492;2023-12-20T07:59:45;4.65;89.19
65470;DHT22;52067;50.710;14.492;2023-12-20T08:02:10;4.68;89.13
65470;DHT22;52067;50.710;14.492;2023-12-20T08:04:35;4.76;88.73
65470;DHT22;52067;50.710;14.492;2023-12-20T08:07:01;4.84;88.43
65470;DHT22;52067;50.710;14.492;2023-12-20T08:09:27;4.96;88.27
65470;DHT22;52067;50.710;14.492;2023-12-20T08:11:52;4.97;87.73
65470;DHT22;52067;50.710;14.492;2023-12-20T08:14:18;4.87;88.19
65470;DHT22;52067;50.710;14.492;2023-12-20T08:16:43;4.92;87.67
65470;DHT22;52067;50.710;14.492;2023-12-20T08:19:08;4.96;87.43
65470;DHT22;52067;50.710;14.492;2023-12-20T08:21:34;4.90;87.15
65470;DHT22;52067;50.710;14.492;2023-12-20T08:23:59;4.92;87.27
65470;DHT22;52067;50.710;14.492;2023-12-20T08:26:26;4.87;87.04
65470;DHT22;52067;50.710;14.492;2023-12-20T08:28:51;4.90;87.39
65470;DHT22;52067;50.710;14.492;2023-12-20T08:31:17;4.96;87.44
65470;DHT22;52067;50.710;14.492;2023-12-20T08:33:47;4.94;86.71
65470;DHT22;52067;50.710;14.492;2023-12-20T08:36:13;4.96;87.00
65470;DHT22;52067;50.710;14.492;2023-12-20T08:38:38;5.00;86.63
65470;DHT22;52067;50.710;14.492;2023-12-20T08:41:04;5.03;85.62
65470;DHT22;52067;50.710;14.492;2023-12-20T08:43:35;5.10;85.80
65470;DHT22;52067;50.710;14.492;2023-12-20T08:46:01;5.11;85.57
65470;DHT22;52067;50.710;14.492;2023-12-20T08:48:28;5.23;85.43
65470;DHT22;52067;50.710;14.492;2023-12-20T08:50:53;5.27;84.92
65470;DHT22;52067;50.710;14.492;2023-12-20T08:53:19;5.75;84.22
65470;DHT22;52067;50.710;14.492;2023-12-20T08:55:45;6.36;81.92
65470;DHT22;52067;50.710;14.492;2023-12-20T08:58:10;6.96;79.89
65470;DHT22;52067;50.710;14.492;2023-12-20T09:00:36;7.27;79.21
65470;DHT22;52067;50.710;14.492;2023-12-20T09:03:02;6.89;79.82
65470;DHT22;52067;50.710;14.492;2023-12-20T09:05:28;6.45;80.73
65470;DHT22;52067;50.710;14.492;2023-12-20T09:07:54;6.42;81.65
65470;DHT22;52067;50.710;14.492;2023-12-20T09:10:19;6.34;81.15
65470;DHT22;52067;50.710;14.492;2023-12-20T09:12:51;6.26;80.95
65470;DHT22;52067;50.710;14.492;2023-12-20T09:15:16;6.21;82.02
65470;DHT22;52067;50.710;14.492;2023-12-20T09:17:42;6.27;82.08
65470;DHT22;52067;50.710;14.492;2023-12-20T09:20:09;6.33;79.57
65470;DHT22;52067;50.710;14.492;2023-12-20T09:22:34;6.30;80.16
65470;DHT22;52067;50.710;14.492;2023-12-20T09:25:00;6.24;79.97
65470;DHT22;52067;50.710;14.492;2023-12-20T09:27:27;6.16;78.79
65470;DHT22;52067;50.710;14.492;2023-12-20T09:29:52;6.42;79.92
65470;DHT22;52067;50.710;14.492;2023-12-20T09:32:18;6.45;78.80
65470;DHT22;52067;50.710;14.492;2023-12-20T09:34:45;6.41;78.01
65470;DHT22;52067;50.710;14.492;2023-12-20T09:37:11;6.42;77.80
65470;DHT22;52067;50.710;14.492;2023-12-20T09:39:36;6.69;78.23
65470;DHT22;52067;50.710;14.492;2023-12-20T09:42:03;6.88;77.10
65470;DHT22;52067;50.710;14.492;2023-12-20T09:44:28;6.91;77.80
65470;DHT22;52067;50.710;14.492;2023-12-20T09:46:55;7.03;76.76
65470;DHT22;52067;50.710;14.492;2023-12-20T09:49:21;6.98;78.02
65470;DHT22;52067;50.710;14.492;2023-12-20T09:51:47;7.00;77.89
65470;DHT22;52067;50.710;14.492;2023-12-20T09:54:16;6.99;78.12
65470;DHT22;52067;50.710;14.492;2023-12-20T09:56:41;6.84;75.03
65470;DHT22;52067;50.710;14.492;2023-12-20T09:59:07;6.81;76.35
65470;DHT22;52067;50.710;14.492;2023-12-20T10:01:34;6.88;77.62
65470;DHT22;52067;50.710;14.492;2023-12-20T10:04:00;6.74;74.31
65470;DHT22;52067;50.710;14.492;2023-12-20T10:06:25;6.88;75.22
65470;DHT22;52067;50.710;14.492;2023-12-20T10:08:51;6.72;74.67
65470;DHT22;52067;50.710;14.492;2023-12-20T10:11:16;6.67;75.73
65470;DHT22;52067;50.710;14.492;2023-12-20T10:13:43;6.55;74.80
65470;DHT22;52067;50.710;14.492;2023-12-20T10:16:08;6.61;74.18
65470;DHT22;52067;50.710;14.492;2023-12-20T10:18:34;6.48;73.34
65470;DHT22;52067;50.710;14.492;2023-12-20T10:21:00;6.44;73.44
65470;DHT22;52067;50.710;14.492;2023-12-20T10:23:25;6.34;74.92
65470;DHT22;52067;50.710;14.492;2023-12-20T10:25:58;6.29;73.64
65470;DHT22;52067;50.710;14.492;2023-12-20T10:28:23;6.21;73.78
65470;DHT22;52067;50.710;14.492;2023-12-20T10:30:53;6.21;75.10
65470;DHT22;52067;50.710;14.492;2023-12-20T10:33:30;7.19;72.46
65470;DHT22;52067;50.710;14.492;2023-12-20T10:35:57;7.42;72.05
65470;DHT22;52067;50.710;14.492;2023-12-20T10:38:23;6.99;72.86
65470;DHT22;52067;50.710;14.492;2023-12-20T10:40:53;8.10;71.24
65470;DHT22;52067;50.710;14.492;2023-12-20T10:43:19;9.59;67.80
65470;DHT22;52067;50.710;14.492;2023-12-20T10:45:45;10.44;64.00
65470;DHT22;52067;50.710;14.492;2023-12-20T10:48:11;11.11;62.68
65470;DHT22;52067;50.710;14.492;2023-12-20T10:50:40;11.28;61.10
65470;DHT22;52067;50.710;14.492;2023-12-20T10:53:06;11.44;60.01
65470;DHT22;52067;50.710;14.492;2023-12-20T10:55:31;10.79;61.48
65470;DHT22;52067;50.710;14.492;2023-12-20T10:58:07;10.90;62.11
65470;DHT22;52067;50.710;14.492;2023-12-20T11:00:37;11.04;62.19
65470;DHT22;52067;50.710;14.492;2023-12-20T11:03:05;10.90;59.86
65470;DHT22;52067;50.710;14.492;2023-12-20T11:06:00;11.51;59.53
65470;DHT22;52067;50.710;14.492;2023-12-20T11:08:58;11.40;58.92
65470;DHT22;52067;50.710;14.492;2023-12-20T11:11:39;10.37;60.33
65470;DHT22;52067;50.710;14.492;2023-12-20T11:14:17;10.76;59.44
65470;DHT22;52067;50.710;14.492;2023-12-20T11:16:44;11.20;58.20
65470;DHT22;52067;50.710;14.492;2023-12-20T11:19:11;10.83;57.74
65470;DHT22;52067;50.710;14.492;2023-12-20T11:21:39;10.96;57.90
65470;DHT22;52067;50.710;14.492;2023-12-20T11:24:05;10.15;60.32
65470;DHT22;52067;50.710;14.492;2023-12-20T11:26:31;10.04;61.18
65470;DHT22;52067;50.710;14.492;2023-12-20T11:29:36;10.37;63.79
65470;DHT22;52067;50.710;14.492;2023-12-20T11:32:02;10.28;62.03
65470;DHT22;52067;50.710;14.492;2023-12-20T11:34:29;10.95;58.94
65470;DHT22;52067;50.710;14.492;2023-12-20T11:37:00;11.24;58.45
65470;DHT22;52067;50.710;14.492;2023-12-20T11:39:27;11.81;56.17
65470;DHT22;52067;50.710;14.492;2023-12-20T11:41:56;11.35;55.41
65470;DHT22;52067;50.710;14.492;2023-12-20T11:44:22;11.00;56.44
65470;DHT22;52067;50.710;14.492;2023-12-20T11:46:48;10.99;56.85
65470;DHT22;52067;50.710;14.492;2023-12-20T11:49:14;11.30;54.30
65470;DHT22;52067;50.710;14.492;2023-12-20T11:51:42;10.80;58.96
65470;DHT22;52067;50.710;14.492;2023-12-20T11:54:08;10.62;57.97
65470;DHT22;52067;50.710;14.492;2023-12-20T11:56:36;9.05;61.22
65470;DHT22;52067;50.710;14.492;2023-12-20T11:59:01;8.40;63.97
65470;DHT22;52067;50.710;14.492;2023-12-20T12:01:27;7.97;65.18
65470;DHT22;52067;50.710;14.492;2023-12-20T12:04:03;7.57;65.94
65470;DHT22;52067;50.710;14.492;2023-12-20T12:06:28;7.60;66.48
65470;DHT22;52067;50.710;14.492;2023-12-20T12:08:54;7.40;65.82
65470;DHT22;52067;50.710;14.492;2023-12-20T12:11:21;7.13;65.92
65470;DHT22;52067;50.710;14.492;2023-12-20T12:13:46;7.15;65.71
65470;DHT22;52067;50.710;14.492;2023-12-20T12:16:12;7.19;67.45
65470;DHT22;52067;50.710;14.492;2023-12-20T12:18:37;7.15;65.96
65470;DHT22;52067;50.710;14.492;2023-12-20T12:21:03;7.12;66.59
65470;DHT22;52067;50.710;14.492;2023-12-20T12:23:28;7.15;66.79
65470;DHT22;52067;50.710;14.492;2023-12-20T12:25:54;7.09;66.86
65470;DHT22;52067;50.710;14.492;2023-12-20T12:28:20;7.05;66.32
65470;DHT22;52067;50.710;14.492;2023-12-20T12:30:58;7.03;66.32
65470;DHT22;52067;50.710;14.492;2023-12-20T12:33:27;7.03;67.14
65470;DHT22;52067;50.710;14.492;2023-12-20T12:35:53;7.03;68.24
65470;DHT22;52067;50.710;14.492;2023-12-20T12:38:22;6.96;66.30
65470;DHT22;52067;50.710;14.492;2023-12-20T12:40:47;6.88;68.48
65470;DHT22;52067;50.710;14.492;2023-12-20T12:43:12;6.96;66.30
65470;DHT22;52067;50.710;14.492;2023-12-20T12:45:38;6.92;67.74
65470;DHT22;52067;50.710;14.492;2023-12-20T12:48:04;6.92;66.51
65470;DHT22;52067;50.710;14.492;2023-12-20T12:50:30;6.93;67.63
65470;DHT22;52067;50.710;14.492;2023-12-20T12:52:56;7.00;66.07
65470;DHT22;52067;50.710;14.492;2023-12-20T12:55:21;6.99;66.06
65470;DHT22;52067;50.710;14.492;2023-12-20T12:57:47;7.23;68.15
65470;DHT22;52067;50.710;14.492;2023-12-20T13:00:12;7.27;66.52
65470;DHT22;52067;50.710;14.492;2023-12-20T13:02:39;7.42;64.20
65470;DHT22;52067;50.710;14.492;2023-12-20T13:05:07;7.60;64.45
65470;DHT22;52067;50.710;14.492;2023-12-20T13:07:33;7.51;66.91
65470;DHT22;52067;50.710;14.492;2023-12-20T13:09:59;7.37;64.89
65470;DHT22;52067;50.710;14.492;2023-12-20T13:12:24;7.33;65.33
65470;DHT22;52067;50.710;14.492;2023-12-20T13:14:49;7.51;66.08
65470;DHT22;52067;50.710;14.492;2023-12-20T13:17:15;8.16;63.08
65470;DHT22;52067;50.710;14.492;2023-12-20T13:19:41;8.91;59.97
65470;DHT22;52067;50.710;14.492;2023-12-20T13:22:07;9.55;59.06
65470;DHT22;52067;50.710;14.492;2023-12-20T13:24:32;9.73;57.84
65470;DHT22;52067;50.710;14.492;2023-12-20T13:26:58;10.15;56.13
65470;DHT22;52067;50.710;14.492;2023-12-20T13:29:24;9.89;55.86
65470;DHT22;52067;50.710;14.492;2023-12-20T13:31:51;9.87;58.72
65470;DHT22;52067;50.710;14.492;2023-12-20T13:34:16;9.77;56.70
65470;DHT22;52067;50.710;14.492;2023-12-20T13:36:43;9.19;58.11
65470;DHT22;52067;50.710;14.492;2023-12-20T13:39:11;8.80;60.45
65470;DHT22;52067;50.710;14.492;2023-12-20T13:41:37;8.68;61.15
65470;DHT22;52067;50.710;14.492;2023-12-20T13:44:02;8.46;61.97
65470;DHT22;52067;50.710;14.492;2023-12-20T13:46:29;7.82;63.77
65470;DHT22;52067;50.710;14.492;2023-12-20T13:48:54;7.57;63.72
65470;DHT22;52067;50.710;14.492;2023-12-20T13:51:20;7.39;64.68
65470;DHT22;52067;50.710;14.492;2023-12-20T13:53:46;7.18;65.32
65470;DHT22;52067;50.710;14.492;2023-12-20T13:56:13;7.13;66.07
65470;DHT22;52067;50.710;14.492;2023-12-20T13:58:39;6.99;67.45
65470;DHT22;52067;50.710;14.492;2023-12-20T14:01:05;6.88;67.95
65470;DHT22;52067;50.710;14.492;2023-12-20T14:03:31;6.81;67.84
65470;DHT22;52067;50.710;14.492;2023-12-20T14:05:57;6.68;67.79
65470;DHT22;52067;50.710;14.492;2023-12-20T14:08:22;6.58;67.40
65470;DHT22;52067;50.710;14.492;2023-12-20T14:10:49;6.51;68.38
65470;DHT22;52067;50.710;14.492;2023-12-20T14:13:15;6.60;68.96
65470;DHT22;52067;50.710;14.492;2023-12-20T14:15:40;6.57;69.38
65470;DHT22;52067;50.710;14.492;2023-12-20T14:18:06;6.45;68.31
65470;DHT22;52067;50.710;14.492;2023-12-20T14:20:35;6.33;69.13
65470;DHT22;52067;50.710;14.492;2023-12-20T14:23:01;6.20;69.02
65470;DHT22;52067;50.710;14.492;2023-12-20T14:25:27;6.24;69.10
65470;DHT22;52067;50.710;14.492;2023-12-20T14:27:53;6.16;68.90
65470;DHT22;52067;50.710;14.492;2023-12-20T14:30:18;6.10;70.34
65470;DHT22;52067;50.710;14.492;2023-12-20T14:32:43;6.14;69.86
65470;DHT22;52067;50.710;14.492;2023-12-20T14:35:09;6.10;70.69
65470;DHT22;52067;50.710;14.492;2023-12-20T14:37:35;6.14;70.84
65470;DHT22;52067;50.710;14.492;2023-12-20T14:40:05;6.10;70.62
65470;DHT22;52067;50.710;14.492;2023-12-20T14:42:30;6.14;70.43
65470;DHT22;52067;50.710;14.492;2023-12-20T14:44:57;6.20;70.29
65470;DHT22;52067;50.710;14.492;2023-12-20T14:47:23;6.14;70.76
65470;DHT22;52067;50.710;14.492;2023-12-20T14:49:50;6.10;69.46
65470;DHT22;52067;50.710;14.492;2023-12-20T14:52:17;6.10;69.63
65470;DHT22;52067;50.710;14.492;2023-12-20T14:54:43;6.13;70.87
65470;DHT22;52067;50.710;14.492;2023-12-20T14:57:09;6.10;69.77
65470;DHT22;52067;50.710;14.492;2023-12-20T14:59:34;6.11;70.38
65470;DHT22;52067;50.710;14.492;2023-12-20T15:02:00;6.13;69.25
65470;DHT22;52067;50.710;14.492;2023-12-20T15:04:27;6.11;69.88
65470;DHT22;52067;50.710;14.492;2023-12-20T15:06:54;6.11;69.74
65470;DHT22;52067;50.710;14.492;2023-12-20T15:09:19;6.14;70.33
65470;DHT22;52067;50.710;14.492;2023-12-20T15:11:45;6.10;70.77
65470;DHT22;52067;50.710;14.492;2023-12-20T15:14:10;6.11;70.28
65470;DHT22;52067;50.710;14.492;2023-12-20T15:16:36;6.02;71.29
65470;DHT22;52067;50.710;14.492;2023-12-20T15:19:01;6.03;69.49
65470;DHT22;52067;50.710;14.492;2023-12-20T15:21:28;6.14;70.34
65470;DHT22;52067;50.710;14.492;2023-12-20T15:23:59;6.07;71.14